sensor_id;sensor_type;location;lat;lon;timestamp;pressure;altitude;pressure_sealevel;temperature;humidity
9721;BME280;4899;42.644;23.366;2023-02-10T00:01:11;95947.47;;;-6.37;100.00
9721;BME280;4899;42.644;23.366;2023-02-10T00:03:38;95961.78;;;-6.07;100.00
9721;BME280;4899;42.644;23.366;2023-02-10T00:06:04;95962.09;;;-5.94;100.00
9721;BME280;4899;42.644;23.366;2023-02-10T00:08:36;95962.31;;;-5.80;100.00
9721;BME280;4899;42.644;23.366;2023-02-10T00:11:05;95960.88;;;-5.67;100.00
9721;BME280;4899;42.644;23.366;2023-02-10T00:13:31;95960.22;;;-5.61;100.00
9721;BME280;4899;42.644;23.366;2023-02-10T00:15:58;95961.34;;;-5.71;100.00
9721;BME280;4899;42.644;23.366;2023-02-10T00:18:25;95955.19;;;-6.00;100.00
9721;BME280;4899;42.644;23.366;2023-02-10T00:20:50;95953.00;;;-6.03;100.00
9721;BME280;4899;42.644;23.366;2023-02-10T00:23:17;95955.22;;;-6.08;100.00
9721;BME280;4899;42.644;23.366;2023-02-10T00:25:42;95951.19;;;-6.17;100.00
9721;BME280;4899;42.644;23.366;2023-02-10T00:28:08;95948.38;;;-6.30;100.00
9721;BME280;4899;42.644;23.366;2023-02-10T00:30:33;95948.72;;;-6.49;100.00
9721;BME280;4899;42.644;23.366;2023-02-10T00:32:59;95949.50;;;-6.57;100.00
9721;BME280;4899;42.644;23.366;2023-02-10T00:35:24;95949.19;;;-6.54;100.00
9721;BME280;4899;42.644;23.366;2023-02-10T00:37:50;95944.94;;;-6.45;100.00
9721;BME280;4899;42.644;23.366;2023-02-10T00:40:16;95953.72;;;-6.41;100.00
9721;BME280;4899;42.644;23.366;2023-02-10T00:42:43;95942.47;;;-6.37;100.00
9721;BME280;4899;42.644;23.366;2023-02-10T00:45:08;95934.63;;;-6.34;100.00
9721;BME280;4899;42.644;23.366;2023-02-10T00:47:34;95934.44;;;-6.25;100.00
9721;BME280;4899;42.644;23.366;2023-02-10T00:50:01;95913.97;;;-6.36;100.00
9721;BME280;4899;42.644;23.366;2023-02-10T00:52:26;95919.25;;;-6.23;100.00
9721;BME280;4899;42.644;23.366;2023-02-10T00:54:52;95920.38;;;-6.17;100.00
9721;BME280;4899;42.644;23.366;2023-02-10T00:57:18;95929.72;;;-6.11;100.00
9721;BME280;4899;42.644;23.366;2023-02-10T00:59:44;95925.50;;;-6.11;100.00
9721;BME280;4899;42.644;23.366;2023-02-10T01:02:09;95905.63;;;-6.21;100.00
9721;BME280;4899;42.644;23.366;2023-02-10T01:04:36;95914.69;;;-6.11;100.00
9721;BME280;4899;42.644;23.366;2023-02-10T01:07:02;95918.09;;;-5.96;100.00
9721;BME280;4899;42.644;23.366;2023-02-10T01:09:27;95922.84;;;-6.09;100.00
9721;BME280;4899;42.644;23.366;2023-02-10T01:11:54;95916.75;;;-6.23;100.00
9721;BME280;4899;42.644;23.366;2023-02-10T01:14:19;95910.22;;;-6.32;100.00
9721;BME280;4899;42.644;23.366;2023-02-10T01:16:44;95914.28;;;-6.31;100.00
9721;BME280;4899;42.644;23.366;2023-02-10T01:19:12;95915.09;;;-6.39;100.00
9721;BME280;4899;42.644;23.366;2023-02-10T01:21:37;95912.13;;;-6.42;100.00
9721;BME280;4899;42.644;23.366;2023-02-10T01:24:04;95904.28;;;-6.39;100.00
9721;BME280;4899;42.644;23.366;2023-02-10T01:26:33;95900.00;;;-6.14;100.00
9721;BME280;4899;42.644;23.366;2023-02-10T01:28:59;95897.25;;;-5.97;100.00
9721;BME280;4899;42.644;23.366;2023-02-10T01:31:25;95890.06;;;-5.92;100.00
9721;BME280;4899;42.644;23.366;2023-02-10T01:33:52;95892.41;;;-5.90;100.00
9721;BME280;4899;42.644;23.366;2023-02-10T01:36:22;95890.53;;;-5.96;99.79
9721;BME280;4899;42.644;23.366;2023-02-10T01:38:48;95888.84;;;-6.04;99.63
9721;BME280;4899;42.644;23.366;2023-02-10T01:41:15;95891.25;;;-6.18;99.92
9721;BME280;4899;42.644;23.366;2023-02-10T01:44:03;95886.34;;;-6.75;100.00
9721;BME280;4899;42.644;23.366;2023-02-10T01:46:34;95881.81;;;-6.72;100.00
9721;BME280;4899;42.644;23.366;2023-02-10T01:49:10;95883.88;;;-6.84;100.00
9721;BME280;4899;42.644;23.366;2023-02-10T01:54:28;95875.59;;;-7.08;100.00
9721;BME280;4899;42.644;23.366;2023-02-10T01:56:57;95878.53;;;-7.21;100.00
9721;BME280;4899;42.644;23.366;2023-02-10T01:59:26;95879.94;;;-7.27;100.00
9721;BME280;4899;42.644;23.366;2023-02-10T02:01:55;95870.56;;;-7.41;100.00
9721;BME280;4899;42.644;23.366;2023-02-10T02:04:20;95866.34;;;-7.32;100.00
9721;BME280;4899;42.644;23.366;2023-02-10T02:06:46;95857.31;;;-7.17;100.00
9721;BME280;4899;42.644;23.366;2023-02-10T02:09:12;95858.88;;;-7.16;100.00
9721;BME280;4899;42.644;23.366;2023-02-10T02:11:52;95856.53;;;-7.09;100.00
9721;BME280;4899;42.644;23.366;2023-02-10T02:17:05;95848.56;;;-7.13;100.00
9721;BME280;4899;42.644;23.366;2023-02-10T02:34:11;95843.97;;;-7.75;100.00
9721;BME280;4899;42.644;23.366;2023-02-10T02:39:14;95845.00;;;-7.93;100.00
9721;BME280;4899;42.644;23.366;2023-02-10T02:41:39;95850.19;;;-7.87;100.00
9721;BME280;4899;42.644;23.366;2023-02-10T02:44:05;95836.88;;;-7.95;100.00
9721;BME280;4899;42.644;23.366;2023-02-10T02:46:55;95840.69;;;-7.83;100.00
9721;BME280;4899;42.644;23.366;2023-02-10T02:52:04;95835.22;;;-7.87;100.00
9721;BME280;4899;42.644;23.366;2023-02-10T02:54:49;95847.22;;;-7.90;100.00
9721;BME280;4899;42.644;23.366;2023-02-10T03:00:15;95811.53;;;-8.25;100.00
9721;BME280;4899;42.644;23.366;2023-02-10T03:02:43;95847.03;;;-7.97;100.00
9721;BME280;4899;42.644;23.366;2023-02-10T03:05:10;95841.25;;;-7.97;100.00
9721;BME280;4899;42.644;23.366;2023-02-10T03:07:36;95830.97;;;-7.94;100.00
9721;BME280;4899;42.644;23.366;2023-02-10T03:10:03;95831.63;;;-7.92;100.00
9721;BME280;4899;42.644;23.366;2023-02-10T03:12:29;95827.41;;;-7.84;100.00
9721;BME280;4899;42.644;23.366;2023-02-10T03:14:54;95833.66;;;-7.80;100.00
9721;BME280;4899;42.644;23.366;2023-02-10T03:17:20;95839.75;;;-7.74;100.00
9721;BME280;4899;42.644;23.366;2023-02-10T03:19:51;95838.97;;;-7.75;100.00
9721;BME280;4899;42.644;23.366;2023-02-10T03:22:16;95842.25;;;-7.82;100.00
9721;BME280;4899;42.644;23.366;2023-02-10T03:24:41;95842.44;;;-7.67;100.00
9721;BME280;4899;42.644;23.366;2023-02-10T03:27:07;95850.41;;;-7.48;100.00
9721;BME280;4899;42.644;23.366;2023-02-10T03:29:33;95846.66;;;-7.44;100.00
9721;BME280;4899;42.644;23.366;2023-02-10T03:31:58;95836.81;;;-7.53;100.00
9721;BME280;4899;42.644;23.366;2023-02-10T03:34:27;95850.88;;;-7.52;100.00
9721;BME280;4899;42.644;23.366;2023-02-10T03:36:54;95840.09;;;-7.61;100.00
9721;BME280;4899;42.644;23.366;2023-02-10T03:39:20;95846.59;;;-7.84;100.00
9721;BME280;4899;42.644;23.366;2023-02-10T03:41:45;95840.75;;;-8.09;100.00
9721;BME280;4899;42.644;23.366;2023-02-10T03:44:11;95833.56;;;-8.12;100.00
9721;BME280;4899;42.644;23.366;2023-02-10T03:46:36;95826.41;;;-8.15;100.00
9721;BME280;4899;42.644;23.366;2023-02-10T03:49:03;95828.75;;;-8.14;100.00
9721;BME280;4899;42.644;23.366;2023-02-10T03:51:35;95825.91;;;-8.19;100.00
9721;BME280;4899;42.644;23.366;2023-02-10T03:54:00;95825.78;;;-8.09;100.00
9721;BME280;4899;42.644;23.366;2023-02-10T03:56:26;95820.78;;;-8.09;100.00
9721;BME280;4899;42.644;23.366;2023-02-10T03:58:51;95819.53;;;-8.13;100.00
9721;BME280;4899;42.644;23.366;2023-02-10T04:01:17;95818.16;;;-8.08;100.00
9721;BME280;4899;42.644;23.366;2023-02-10T04:03:43;95817.22;;;-8.07;100.00
9721;BME280;4899;42.644;23.366;2023-02-10T04:06:09;95819.53;;;-8.13;100.00
9721;BME280;4899;42.644;23.366;2023-02-10T04:08:36;95820.13;;;-8.19;100.00
9721;BME280;4899;42.644;23.366;2023-02-10T04:11:02;95808.88;;;-8.23;100.00
9721;BME280;4899;42.644;23.366;2023-02-10T04:13:28;95819.66;;;-8.23;100.00
9721;BME280;4899;42.644;23.366;2023-02-10T04:16:02;95819.47;;;-8.29;100.00
9721;BME280;4899;42.644;23.366;2023-02-10T04:18:28;95819.00;;;-8.25;100.00
9721;BME280;4899;42.644;23.366;2023-02-10T04:20:53;95823.28;;;-8.17;100.00
9721;BME280;4899;42.644;23.366;2023-02-10T04:23:19;95819.19;;;-8.18;100.00
9721;BME280;4899;42.644;23.366;2023-02-10T04:25:44;95816.34;;;-8.31;100.00
9721;BME280;4899;42.644;23.366;2023-02-10T04:28:10;95823.06;;;-8.24;100.00
9721;BME280;4899;42.644;23.366;2023-02-10T04:30:35;95814.97;;;-8.26;100.00
9721;BME280;4899;42.644;23.366;2023-02-10T04:33:01;95817.94;;;-8.22;100.00
9721;BME280;4899;42.644;23.366;2023-02-10T04:35:26;95828.25;;;-8.17;100.00
9721;BME280;4899;42.644;23.366;2023-02-10T04:37:52;95810.44;;;-8.22;100.00
9721;BME280;4899;42.644;23.366;2023-02-10T04:40:17;95819.53;;;-8.13;100.00
9721;BME280;4899;42.644;23.366;2023-02-10T04:42:43;95821.56;;;-8.09;100.00
9721;BME280;4899;42.644;23.366;2023-02-10T04:45:08;95827.69;;;-7.95;100.00
9721;BME280;4899;42.644;23.366;2023-02-10T04:47:33;95827.09;;;-7.89;100.00
9721;BME280;4899;42.644;23.366;2023-02-10T04:50:01;95810.19;;;-8.03;100.00
9721;BME280;4899;42.644;23.366;2023-02-10T04:52:27;95832.34;;;-8.08;100.00
9721;BME280;4899;42.644;23.366;2023-02-10T04:54:52;95826.56;;;-8.17;100.00
9721;BME280;4899;42.644;23.366;2023-02-10T04:57:18;95834.47;;;-8.21;100.00
9721;BME280;4899;42.644;23.366;2023-02-10T04:59:44;95833.38;;;-8.35;100.00
9721;BME280;4899;42.644;23.366;2023-02-10T05:02:09;95827.59;;;-8.27;100.00
9721;BME280;4899;42.644;23.366;2023-02-10T05:04:36;95830.56;;;-8.24;100.00
9721;BME280;4899;42.644;23.366;2023-02-10T05:07:01;95829.31;;;-8.28;100.00
9721;BME280;4899;42.644;23.366;2023-02-10T05:09:27;95831.00;;;-8.28;100.00
9721;BME280;4899;42.644;23.366;2023-02-10T05:11:53;95832.09;;;-8.31;100.00
9721;BME280;4899;42.644;23.366;2023-02-10T05:14:18;95840.38;;;-8.30;100.00
9721;BME280;4899;42.644;23.366;2023-02-10T05:16:44;95840.84;;;-8.27;100.00
9721;BME280;4899;42.644;23.366;2023-02-10T05:19:09;95849.09;;;-8.26;100.00
9721;BME280;4899;42.644;23.366;2023-02-10T05:21:35;95840.84;;;-8.27;100.00
9721;BME280;4899;42.644;23.366;2023-02-10T05:24:01;95852.09;;;-8.23;100.00
9721;BME280;4899;42.644;23.366;2023-02-10T05:26:27;95867.19;;;-8.24;100.00
9721;BME280;4899;42.644;23.366;2023-02-10T05:28:52;95869.53;;;-8.31;100.00
9721;BME280;4899;42.644;23.366;2023-02-10T05:31:18;95869.38;;;-8.38;100.00
9721;BME280;4899;42.644;23.366;2023-02-10T05:33:43;95866.09;;;-8.38;100.00
9721;BME280;4899;42.644;23.366;2023-02-10T05:36:16;95869.94;;;-8.44;100.00
9721;BME280;4899;42.644;23.366;2023-02-10T05:38:41;95866.28;;;-8.23;100.00
9721;BME280;4899;42.644;23.366;2023-02-10T05:41:30;95885.06;;;-8.03;100.00
9721;BME280;4899;42.644;23.366;2023-02-10T05:43:55;95887.00;;;-7.89;100.00
9721;BME280;4899;42.644;23.366;2023-02-10T05:46:21;95901.41;;;-7.75;100.00
9721;BME280;4899;42.644;23.366;2023-02-10T05:48:46;95894.75;;;-7.58;100.00
9721;BME280;4899;42.644;23.366;2023-02-10T05:51:11;95892.72;;;-7.54;100.00
9721;BME280;4899;42.644;23.366;2023-02-10T05:53:39;95876.94;;;-7.63;100.00
9721;BME280;4899;42.644;23.366;2023-02-10T05:56:04;95883.38;;;-7.94;100.00
9721;BME280;4899;42.644;23.366;2023-02-10T05:58:30;95888.84;;;-7.99;100.00
9721;BME280;4899;42.644;23.366;2023-02-10T06:01:00;95892.25;;;-8.08;100.00
9721;BME280;4899;42.644;23.366;2023-02-10T06:03:30;95890.13;;;-8.21;100.00
9721;BME280;4899;42.644;23.366;2023-02-10T06:05:55;95894.63;;;-8.32;100.00
9721;BME280;4899;42.644;23.366;2023-02-10T06:08:21;95900.25;;;-8.39;100.00
9721;BME280;4899;42.644;23.366;2023-02-10T06:10:47;95903.66;;;-8.31;100.00
9721;BME280;4899;42.644;23.366;2023-02-10T06:13:13;95911.16;;;-8.31;100.00
9721;BME280;4899;42.644;23.366;2023-02-10T06:15:39;95913.69;;;-8.23;100.00
9721;BME280;4899;42.644;23.366;2023-02-10T06:18:04;95911.63;;;-8.28;100.00
9721;BME280;4899;42.644;23.366;2023-02-10T06:20:31;95922.09;;;-8.24;100.00
9721;BME280;4899;42.644;23.366;2023-02-10T06:22:57;95901.66;;;-8.36;100.00
9721;BME280;4899;42.644;23.366;2023-02-10T06:25:22;95906.50;;;-8.34;100.00
9721;BME280;4899;42.644;23.366;2023-02-10T06:27:50;95920.53;;;-8.33;100.00
9721;BME280;4899;42.644;23.366;2023-02-10T06:30:17;95922.09;;;-8.24;100.00
9721;BME280;4899;42.644;23.366;2023-02-10T06:32:42;95927.78;;;-8.14;100.00
9721;BME280;4899;42.644;23.366;2023-02-10T06:35:08;95929.69;;;-8.08;100.00
9721;BME280;4899;42.644;23.366;2023-02-10T06:37:35;95920.00;;;-8.11;100.00
9721;BME280;4899;42.644;23.366;2023-02-10T06:40:05;95927.50;;;-8.03;100.00
9721;BME280;4899;42.644;23.366;2023-02-10T06:42:31;95929.25;;;-7.95;100.00
9721;BME280;4899;42.644;23.366;2023-02-10T06:44:57;95931.81;;;-7.79;100.00
9721;BME280;4899;42.644;23.366;2023-02-10T06:47:23;95940.94;;;-7.62;100.00
9721;BME280;4899;42.644;23.366;2023-02-10T06:49:48;95938.63;;;-7.47;100.00
9721;BME280;4899;42.644;23.366;2023-02-10T06:52:14;95945.69;;;-7.34;100.00
9721;BME280;4899;42.644;23.366;2023-02-10T06:54:39;95940.69;;;-7.34;100.00
9721;BME280;4899;42.644;23.366;2023-02-10T06:57:05;95941.53;;;-7.18;100.00
9721;BME280;4899;42.644;23.366;2023-02-10T06:59:32;95943.38;;;-7.20;100.00
9721;BME280;4899;42.644;23.366;2023-02-10T07:01:57;95950.59;;;-7.17;100.00
9721;BME280;4899;42.644;23.366;2023-02-10T07:04:27;95949.47;;;-7.22;100.00
9721;BME280;4899;42.644;23.366;2023-02-10T07:07:05;95945.56;;;-7.25;100.00
9721;BME280;4899;42.644;23.366;2023-02-10T07:09:31;95936.50;;;-7.26;100.00
9721;BME280;4899;42.644;23.366;2023-02-10T07:11:57;95943.06;;;-7.25;100.00
9721;BME280;4899;42.644;23.366;2023-02-10T07:14:23;95948.88;;;-7.16;100.00
9721;BME280;4899;42.644;23.366;2023-02-10T07:16:49;95945.59;;;-7.08;100.00
9721;BME280;4899;42.644;23.366;2023-02-10T07:19:14;95933.56;;;-7.13;100.00
9721;BME280;4899;42.644;23.366;2023-02-10T07:21:43;95939.50;;;-7.06;100.00
9721;BME280;4899;42.644;23.366;2023-02-10T07:24:09;95939.50;;;-6.98;100.00
9721;BME280;4899;42.644;23.366;2023-02-10T07:26:34;95936.22;;;-6.90;100.00
9721;BME280;4899;42.644;23.366;2023-02-10T07:29:00;95939.97;;;-6.78;100.00
9721;BME280;4899;42.644;23.366;2023-02-10T07:31:25;95933.88;;;-6.67;100.00
9721;BME280;4899;42.644;23.366;2023-02-10T07:33:51;95931.84;;;-6.56;100.00
9721;BME280;4899;42.644;23.366;2023-02-10T07:36:20;95923.38;;;-6.46;100.00
9721;BME280;4899;42.644;23.366;2023-02-10T07:38:45;95932.09;;;-6.26;100.00
9721;BME280;4899;42.644;23.366;2023-02-10T07:41:10;95926.59;;;-6.22;100.00
9721;BME280;4899;42.644;23.366;2023-02-10T07:43:38;95938.31;;;-6.06;100.00
9721;BME280;4899;42.644;23.366;2023-02-10T07:46:03;95928.88;;;-5.96;100.00
9721;BME280;4899;42.644;23.366;2023-02-10T07:48:29;95929.13;;;-5.82;100.00
9721;BME280;4899;42.644;23.366;2023-02-10T07:50:54;95925.03;;;-5.75;100.00
9721;BME280;4899;42.644;23.366;2023-02-10T07:53:21;95929.06;;;-5.66;100.00
9721;BME280;4899;42.644;23.366;2023-02-10T07:55:46;95923.13;;;-5.73;100.00
9721;BME280;4899;42.644;23.366;2023-02-10T07:58:13;95936.78;;;-5.76;100.00
9721;BME280;4899;42.644;23.366;2023-02-10T08:00:38;95937.22;;;-5.72;100.00
9721;BME280;4899;42.644;23.366;2023-02-10T08:03:04;95938.16;;;-5.73;100.00
9721;BME280;4899;42.644;23.366;2023-02-10T08:05:30;95948.84;;;-5.40;100.00
9721;BME280;4899;42.644;23.366;2023-02-10T08:07:56;95941.78;;;-5.37;100.00
9721;BME280;4899;42.644;23.366;2023-02-10T08:10:21;95950.19;;;-5.30;100.00
9721;BME280;4899;42.644;23.366;2023-02-10T08:12:47;95948.63;;;-5.31;100.00
9721;BME280;4899;42.644;23.366;2023-02-10T08:15:14;95935.72;;;-5.19;100.00
9721;BME280;4899;42.644;23.366;2023-02-10T08:17:43;95936.84;;;-4.99;100.00
9721;BME280;4899;42.644;23.366;2023-02-10T08:20:09;95938.53;;;-4.91;100.00
9721;BME280;4899;42.644;23.366;2023-02-10T08:22:35;95931.38;;;-4.80;100.00
9721;BME280;4899;42.644;23.366;2023-02-10T08:25:01;95935.44;;;-4.79;100.00
9721;BME280;4899;42.644;23.366;2023-02-10T08:27:26;95923.84;;;-4.80;100.00
9721;BME280;4899;42.644;23.366;2023-02-10T08:29:54;95935.44;;;-4.79;100.00
9721;BME280;4899;42.644;23.366;2023-02-10T08:32:19;95938.25;;;-4.59;100.00
9721;BME280;4899;42.644;23.366;2023-02-10T08:34:46;95943.75;;;-4.41;100.00
9721;BME280;4899;42.644;23.366;2023-02-10T08:37:12;95938.06;;;-4.35;100.00
9721;BME280;4899;42.644;23.366;2023-02-10T08:39:37;95935.22;;;-4.17;100.00
9721;BME280;4899;42.644;23.366;2023-02-10T08:42:03;95937.72;;;-4.17;100.00
9721;BME280;4899;42.644;23.366;2023-02-10T08:44:28;95932.88;;;-4.04;99.06
9721;BME280;4899;42.644;23.366;2023-02-10T08:46:54;95929.50;;;-3.96;95.11
9721;BME280;4899;42.644;23.366;2023-02-10T08:49:19;95934.63;;;-3.89;95.05
9721;BME280;4899;42.644;23.366;2023-02-10T08:51:45;95934.38;;;-3.94;95.71
9721;BME280;4899;42.644;23.366;2023-02-10T08:54:10;95932.63;;;-3.94;94.07
9721;BME280;4899;42.644;23.366;2023-02-10T08:56:36;95935.03;;;-3.86;92.79
9721;BME280;4899;42.644;23.366;2023-02-10T08:59:02;95925.25;;;-3.95;91.84
9721;BME280;4899;42.644;23.366;2023-02-10T09:01:27;95927.75;;;-3.66;91.01
9721;BME280;4899;42.644;23.366;2023-02-10T09:03:53;95917.78;;;-3.74;88.67
9721;BME280;4899;42.644;23.366;2023-02-10T09:06:26;95921.84;;;-3.73;89.18
9721;BME280;4899;42.644;23.366;2023-02-10T09:08:53;95923.63;;;-3.52;88.36
9721;BME280;4899;42.644;23.366;2023-02-10T09:11:20;95917.41;;;-3.56;85.93
9721;BME280;4899;42.644;23.366;2023-02-10T09:13:48;95900.88;;;-3.65;84.68
9721;BME280;4899;42.644;23.366;2023-02-10T09:16:14;95914.72;;;-3.55;85.91
9721;BME280;4899;42.644;23.366;2023-02-10T09:18:39;95915.28;;;-3.38;86.63
9721;BME280;4899;42.644;23.366;2023-02-10T09:21:04;95911.16;;;-3.03;83.70
9721;BME280;4899;42.644;23.366;2023-02-10T09:23:30;95910.28;;;-2.95;82.42
9721;BME280;4899;42.644;23.366;2023-02-10T09:25:58;95913.16;;;-2.49;82.82
9721;BME280;4899;42.644;23.366;2023-02-10T09:28:24;95913.22;;;-2.14;80.80
9721;BME280;4899;42.644;23.366;2023-02-10T09:30:49;95911.97;;;-1.91;74.55
9721;BME280;4899;42.644;23.366;2023-02-10T09:33:15;95896.50;;;-1.81;76.32
9721;BME280;4899;42.644;23.366;2023-02-10T09:35:41;95900.44;;;-1.72;73.89
9721;BME280;4899;42.644;23.366;2023-02-10T09:38:12;95909.38;;;-1.63;72.34
9721;BME280;4899;42.644;23.366;2023-02-10T09:40:49;95905.69;;;-1.60;72.25
9721;BME280;4899;42.644;23.366;2023-02-10T09:46:33;95889.69;;;-1.87;68.34
9721;BME280;4899;42.644;23.366;2023-02-10T09:49:22;95885.59;;;-1.95;70.05
9721;BME280;4899;42.644;23.366;2023-02-10T09:54:51;95879.19;;;-1.91;68.90
9721;BME280;4899;42.644;23.366;2023-02-10T10:00:00;95887.09;;;-1.52;67.18
9721;BME280;4899;42.644;23.366;2023-02-10T10:02:35;95876.94;;;-1.72;65.69
9721;BME280;4899;42.644;23.366;2023-02-10T10:05:16;95887.53;;;-1.42;67.72
9721;BME280;4899;42.644;23.366;2023-02-10T10:07:49;95873.03;;;-0.87;68.20
9721;BME280;4899;42.644;23.366;2023-02-10T10:10:31;95853.97;;;-0.57;62.75
9721;BME280;4899;42.644;23.366;2023-02-10T10:12:59;95861.72;;;-0.32;64.28
9721;BME280;4899;42.644;23.366;2023-02-10T10:15:31;95859.38;;;-0.34;61.96
9721;BME280;4899;42.644;23.366;2023-02-10T10:18:26;95867.53;;;-0.25;60.09
9721;BME280;4899;42.644;23.366;2023-02-10T10:21:12;95858.16;;;-0.11;62.13
9721;BME280;4899;42.644;23.366;2023-02-10T10:31:37;95836.88;;;-0.81;59.23
9721;BME280;4899;42.644;23.366;2023-02-10T10:36:51;95848.72;;;-0.42;60.77
9721;BME280;4899;42.644;23.366;2023-02-10T10:41:49;95841.28;;;-0.31;60.23
9721;BME280;4899;42.644;23.366;2023-02-10T10:44:17;95839.06;;;0.06;61.51
9721;BME280;4899;42.644;23.366;2023-02-10T10:46:49;95831.03;;;0.54;61.55
9721;BME280;4899;42.644;23.366;2023-02-10T10:49:17;95826.19;;;0.84;59.75
9721;BME280;4899;42.644;23.366;2023-02-10T10:51:43;95832.19;;;1.14;59.44
9721;BME280;4899;42.644;23.366;2023-02-10T10:54:15;95821.94;;;1.28;58.70
9721;BME280;4899;42.644;23.366;2023-02-10T10:56:46;95756.22;;;1.08;58.17
9721;BME280;4899;42.644;23.366;2023-02-10T10:59:33;95823.94;;;1.62;57.81
9721;BME280;4899;42.644;23.366;2023-02-10T11:02:14;95817.38;;;1.36;54.73
9721;BME280;4899;42.644;23.366;2023-02-10T11:04:40;95817.47;;;1.23;56.21
9721;BME280;4899;42.644;23.366;2023-02-10T11:07:20;95813.81;;;1.19;55.11
9721;BME280;4899;42.644;23.366;2023-02-10T11:09:52;95818.25;;;0.99;54.41
9721;BME280;4899;42.644;23.366;2023-02-10T11:12:38;95804.66;;;0.93;53.69
9721;BME280;4899;42.644;23.366;2023-02-10T11:17:51;95808.38;;;0.90;54.95
9721;BME280;4899;42.644;23.366;2023-02-10T11:23:00;95802.19;;;1.11;53.71
9721;BME280;4899;42.644;23.366;2023-02-10T11:25:29;95797.06;;;1.18;53.28
9721;BME280;4899;42.644;23.366;2023-02-10T11:27:56;95792.19;;;1.16;53.27
9721;BME280;4899;42.644;23.366;2023-02-10T11:30:34;95777.19;;;1.15;53.88
9721;BME280;4899;42.644;23.366;2023-02-10T11:33:01;95785.00;;;1.13;53.94
9721;BME280;4899;42.644;23.366;2023-02-10T11:35:29;95787.38;;;1.33;53.69
9721;BME280;4899;42.644;23.366;2023-02-10T11:38:07;95770.84;;;1.31;53.46
9721;BME280;4899;42.644;23.366;2023-02-10T11:40:51;95781.09;;;1.36;52.64
9721;BME280;4899;42.644;23.366;2023-02-10T11:43:17;95773.38;;;1.31;52.53
9721;BME280;4899;42.644;23.366;2023-02-10T11:45:56;95787.22;;;1.46;52.18
9721;BME280;4899;42.644;23.366;2023-02-10T11:48:23;95783.84;;;1.89;51.66
9721;BME280;4899;42.644;23.366;2023-02-10T11:51:21;95772.72;;;2.20;50.14
9721;BME280;4899;42.644;23.366;2023-02-10T11:53:47;95779.56;;;3.26;49.77
9721;BME280;4899;42.644;23.366;2023-02-10T11:56:34;95767.47;;;4.54;45.35
9721;BME280;4899;42.644;23.366;2023-02-10T11:59:31;95769.13;;;5.49;46.41
9721;BME280;4899;42.644;23.366;2023-02-10T12:10:23;95744.75;;;9.70;38.35
9721;BME280;4899;42.644;23.366;2023-02-10T12:26:20;95716.38;;;9.96;35.24
9721;BME280;4899;42.644;23.366;2023-02-10T12:41:58;95728.06;;;10.17;38.99
9721;BME280;4899;42.644;23.366;2023-02-10T12:47:29;95717.75;;;10.61;35.87
9721;BME280;4899;42.644;23.366;2023-02-10T12:55:23;95728.31;;;10.94;39.31
9721;BME280;4899;42.644;23.366;2023-02-10T12:57:55;95711.16;;;12.04;37.05
9721;BME280;4899;42.644;23.366;2023-02-10T13:00:43;95673.56;;;12.81;32.81
9721;BME280;4899;42.644;23.366;2023-02-10T13:03:15;95694.25;;;14.05;36.26
9721;BME280;4899;42.644;23.366;2023-02-10T13:05:50;95659.47;;;14.56;32.87
9721;BME280;4899;42.644;23.366;2023-02-10T13:08:26;95653.22;;;15.19;32.84
9721;BME280;4899;42.644;23.366;2023-02-10T13:11:02;95652.78;;;15.91;32.42
9721;BME280;4899;42.644;23.366;2023-02-10T13:13:32;95652.81;;;14.94;34.30
9721;BME280;4899;42.644;23.366;2023-02-10T13:16:02;95654.63;;;14.18;33.49
9721;BME280;4899;42.644;23.366;2023-02-10T13:18:32;95654.28;;;13.61;34.14
9721;BME280;4899;42.644;23.366;2023-02-10T13:21:06;95661.66;;;13.13;32.37
9721;BME280;4899;42.644;23.366;2023-02-10T13:24:12;95645.13;;;13.14;29.52
9721;BME280;4899;42.644;23.366;2023-02-10T13:32:37;95629.31;;;13.93;28.40
9721;BME280;4899;42.644;23.366;2023-02-10T13:35:13;95643.13;;;13.88;30.85
9721;BME280;4899;42.644;23.366;2023-02-10T13:37:42;95651.16;;;13.50;32.17
9721;BME280;4899;42.644;23.366;2023-02-10T13:42:46;95631.47;;;12.21;30.30
9721;BME280;4899;42.644;23.366;2023-02-10T13:47:42;95641.38;;;12.92;31.12
9721;BME280;4899;42.644;23.366;2023-02-10T13:58:15;95639.22;;;11.83;30.12
9721;BME280;4899;42.644;23.366;2023-02-10T14:05:37;95643.63;;;12.34;32.26
9721;BME280;4899;42.644;23.366;2023-02-10T14:08:39;95651.47;;;11.30;30.14
9721;BME280;4899;42.644;23.366;2023-02-10T14:13:32;95673.88;;;11.96;33.06
9721;BME280;4899;42.644;23.366;2023-02-10T14:18:43;95665.53;;;11.37;33.29
9721;BME280;4899;42.644;23.366;2023-02-10T14:21:12;95678.38;;;11.19;32.26
9721;BME280;4899;42.644;23.366;2023-02-10T14:23:41;95695.78;;;10.74;34.22
9721;BME280;4899;42.644;23.366;2023-02-10T14:26:14;95681.22;;;11.84;32.08
9721;BME280;4899;42.644;23.366;2023-02-10T14:28:42;95671.81;;;12.30;32.43
9721;BME280;4899;42.644;23.366;2023-02-10T14:31:28;95662.25;;;12.63;30.78
9721;BME280;4899;42.644;23.366;2023-02-10T14:33:58;95656.94;;;12.87;31.85
9721;BME280;4899;42.644;23.366;2023-02-10T14:36:25;95641.72;;;12.72;32.25
9721;BME280;4899;42.644;23.366;2023-02-10T14:39:01;95644.41;;;12.81;31.64
9721;BME280;4899;42.644;23.366;2023-02-10T14:41:29;95638.47;;;11.59;32.30
9721;BME280;4899;42.644;23.366;2023-02-10T14:43:55;95666.66;;;10.78;33.03
9721;BME280;4899;42.644;23.366;2023-02-10T14:46:26;95660.66;;;10.25;33.47
9721;BME280;4899;42.644;23.366;2023-02-10T14:48:59;95679.34;;;9.37;33.66
9721;BME280;4899;42.644;23.366;2023-02-10T14:51:26;95691.28;;;8.67;34.42
9721;BME280;4899;42.644;23.366;2023-02-10T14:53:52;95700.47;;;8.12;36.05
9721;BME280;4899;42.644;23.366;2023-02-10T14:56:22;95731.03;;;7.56;36.78
9721;BME280;4899;42.644;23.366;2023-02-10T14:58:48;95750.41;;;6.63;37.64
9721;BME280;4899;42.644;23.366;2023-02-10T15:03:48;95771.16;;;4.46;40.37
9721;BME280;4899;42.644;23.366;2023-02-10T15:06:20;95789.19;;;3.99;41.11
9721;BME280;4899;42.644;23.366;2023-02-10T15:09:00;95785.06;;;3.47;42.14
9721;BME280;4899;42.644;23.366;2023-02-10T15:11:52;95786.72;;;3.06;43.44
9721;BME280;4899;42.644;23.366;2023-02-10T15:17:37;95777.22;;;2.36;45.66
9721;BME280;4899;42.644;23.366;2023-02-10T15:27:47;95728.16;;;1.46;49.21
9721;BME280;4899;42.644;23.366;2023-02-10T15:30:21;95727.25;;;1.40;49.33
9721;BME280;4899;42.644;23.366;2023-02-10T15:32:54;95715.16;;;1.24;49.40
9721;BME280;4899;42.644;23.366;2023-02-10T15:35:21;95710.84;;;1.06;49.33